createdAt,value
2022-08-11T00:00:52.788Z,16.02
2022-08-11T00:01:52.778Z,15.96
2022-08-11T00:02:52.816Z,15.90
2022-08-11T00:03:52.735Z,15.92
2022-08-11T00:04:52.727Z,15.90
2022-08-11T00:05:52.716Z,15.93
2022-08-11T00:06:52.723Z,15.89
2022-08-11T00:07:52.692Z,15.90
2022-08-11T00:08:52.678Z,15.96
2022-08-11T00:09:52.678Z,15.90
2022-08-11T00:10:52.655Z,15.84
2022-08-11T00:11:52.667Z,15.89
2022-08-11T00:12:52.653Z,15.86
2022-08-11T00:13:52.623Z,15.84
2022-08-11T00:14:52.610Z,15.82
2022-08-11T00:15:52.601Z,15.82
2022-08-11T00:16:52.588Z,15.82
2022-08-11T00:17:52.604Z,15.75
2022-08-11T00:18:52.566Z,15.82
2022-08-11T00:20:11.940Z,15.82
2022-08-11T00:20:53.544Z,15.78
2022-08-11T00:22:05.363Z,15.67
2022-08-11T00:22:53.542Z,15.69
2022-08-11T00:23:52.510Z,15.60
2022-08-11T00:24:56.042Z,15.67
2022-08-11T00:25:53.489Z,15.68
2022-08-11T00:26:52.478Z,15.64
2022-08-11T00:27:52.486Z,15.59
2022-08-11T00:28:52.455Z,15.59
2022-08-11T00:29:52.449Z,15.59
2022-08-11T00:30:52.435Z,15.59
2022-08-11T00:31:52.423Z,15.56
2022-08-11T00:32:52.432Z,15.49
2022-08-11T00:33:52.398Z,15.47
2022-08-11T00:34:52.393Z,15.50
2022-08-11T00:35:56.740Z,15.50
2022-08-11T00:36:52.368Z,15.44
2022-08-11T00:37:52.375Z,15.38
2022-08-11T00:38:52.343Z,15.34
2022-08-11T00:39:52.400Z,15.35
2022-08-11T00:40:52.322Z,15.35
2022-08-11T00:41:53.718Z,15.34
2022-08-11T00:42:52.320Z,15.29
2022-08-11T00:43:52.291Z,15.35
2022-08-11T00:44:52.277Z,15.35
2022-08-11T00:45:52.268Z,15.31
2022-08-11T00:46:52.254Z,15.21
2022-08-11T00:47:52.267Z,15.32
2022-08-11T00:48:52.253Z,15.19
2022-08-11T00:49:52.220Z,15.23
2022-08-11T00:50:52.212Z,15.29
2022-08-11T00:51:56.611Z,15.20
2022-08-11T00:52:53.186Z,15.21
2022-08-11T00:53:52.197Z,15.19
2022-08-11T00:54:52.167Z,15.10
2022-08-11T00:55:55.809Z,15.21
2022-08-11T00:56:52.163Z,15.19
2022-08-11T00:57:52.133Z,15.17
2022-08-11T00:58:52.148Z,15.09
2022-08-11T00:59:52.111Z,15.03
2022-08-11T01:00:52.134Z,15.03
2022-08-11T01:01:52.089Z,15.06
2022-08-11T01:02:52.075Z,15.06
2022-08-11T01:03:52.066Z,15.07
2022-08-11T01:04:55.628Z,15.06
2022-08-11T01:05:52.045Z,15.06
2022-08-11T01:06:52.030Z,14.98
2022-08-11T01:08:01.609Z,14.99
2022-08-11T01:08:53.010Z,14.89
2022-08-11T01:09:52.000Z,14.95
2022-08-11T01:10:51.986Z,14.94
2022-08-11T01:11:55.353Z,14.98
2022-08-11T01:12:51.965Z,14.89
2022-08-11T01:13:51.972Z,14.88
2022-08-11T01:14:51.946Z,14.83
2022-08-11T01:15:55.918Z,14.81
2022-08-11T01:16:52.924Z,14.86
2022-08-11T01:17:51.932Z,14.84
2022-08-11T01:18:51.902Z,14.83
2022-08-11T01:20:39.722Z,14.81
2022-08-11T01:20:52.877Z,14.81
2022-08-11T01:21:51.865Z,14.78
2022-08-11T01:22:51.875Z,14.80
2022-08-11T01:23:51.958Z,14.72
2022-08-11T01:24:51.832Z,14.72
2022-08-11T01:25:57.146Z,14.75
2022-08-11T01:26:52.813Z,14.61
2022-08-11T01:27:51.797Z,14.70
2022-08-11T01:28:51.810Z,14.60
2022-08-11T01:29:51.774Z,14.62
2022-08-11T01:30:54.232Z,14.62
2022-08-11T01:31:51.754Z,14.65
2022-08-11T01:32:51.744Z,14.61
2022-08-11T01:33:51.798Z,14.70
2022-08-11T01:34:51.724Z,14.65
2022-08-11T01:35:51.709Z,14.68
2022-08-11T01:36:56.632Z,14.55
2022-08-11T01:37:52.681Z,14.54
2022-08-11T01:38:51.673Z,14.55
2022-08-11T01:39:51.728Z,14.50
2022-08-11T01:40:51.649Z,14.54
2022-08-11T01:41:51.641Z,14.50
2022-08-11T01:42:51.631Z,14.52
2022-08-11T01:43:51.618Z,14.50
2022-08-11T01:44:51.627Z,14.57
2022-08-11T01:45:51.622Z,14.35
2022-08-11T01:46:51.588Z,14.40
2022-08-11T01:47:53.225Z,14.42
2022-08-11T01:48:51.585Z,14.32
2022-08-11T01:50:07.893Z,14.45
2022-08-11T01:50:52.561Z,14.35
2022-08-11T01:51:51.527Z,14.33
2022-08-11T01:52:51.541Z,14.37
2022-08-11T01:53:51.532Z,14.28
2022-08-11T01:54:51.499Z,14.27
2022-08-11T01:55:51.493Z,14.32
2022-08-11T01:56:51.484Z,14.29
2022-08-11T01:57:51.460Z,14.32
2022-08-11T01:58:51.456Z,14.21
2022-08-11T01:59:51.461Z,14.27
2022-08-11T02:00:51.494Z,14.27
2022-08-11T02:01:51.419Z,14.27
2022-08-11T02:02:51.408Z,14.29
2022-08-11T02:03:51.393Z,14.32
2022-08-11T02:04:51.402Z,14.27
2022-08-11T02:05:51.372Z,14.09
2022-08-11T02:06:51.362Z,14.20
2022-08-11T02:07:51.347Z,14.17
2022-08-11T02:08:51.339Z,14.15
2022-08-11T02:09:51.953Z,14.24
2022-08-11T02:10:51.457Z,14.24
2022-08-11T02:11:51.308Z,14.18
2022-08-11T02:12:52.484Z,14.15
2022-08-11T02:13:51.283Z,14.22
2022-08-11T02:15:04.672Z,14.20
2022-08-11T02:15:52.260Z,14.10
2022-08-11T02:16:51.248Z,14.09
2022-08-11T02:17:54.759Z,14.18
2022-08-11T02:18:51.227Z,14.00
2022-08-11T02:19:51.235Z,14.10
2022-08-11T02:20:51.222Z,14.15
2022-08-11T02:21:51.195Z,14.06
2022-08-11T02:22:51.183Z,14.00
2022-08-11T02:24:05.789Z,14.14
2022-08-11T02:24:52.177Z,14.04
2022-08-11T02:25:51.150Z,14.00
2022-08-11T02:26:51.138Z,14.10
2022-08-11T02:27:51.130Z,14.02
2022-08-11T02:28:51.114Z,13.95
2022-08-11T02:29:51.126Z,13.95
2022-08-11T02:30:51.116Z,13.92
2022-08-11T02:32:24.276Z,14.00
2022-08-11T02:32:52.069Z,14.02
2022-08-11T02:33:51.062Z,13.92
2022-08-11T02:34:59.531Z,13.91
2022-08-11T02:35:52.037Z,13.85
2022-08-11T02:36:51.025Z,13.88
2022-08-11T02:37:51.214Z,13.88
2022-08-11T02:38:51.023Z,13.82
2022-08-11T02:39:51.055Z,13.78
2022-08-11T02:40:50.981Z,13.79
2022-08-11T02:41:50.969Z,13.71
2022-08-11T02:42:50.980Z,13.79
2022-08-11T02:43:51.362Z,13.73
2022-08-11T02:44:50.956Z,13.75
2022-08-11T02:45:50.926Z,13.70
2022-08-11T02:46:50.934Z,13.67
2022-08-11T02:47:50.939Z,13.78
2022-08-11T02:48:50.894Z,13.77
2022-08-11T02:50:02.516Z,13.73
2022-08-11T02:50:51.869Z,13.73
2022-08-11T02:51:50.867Z,13.75
2022-08-11T02:52:50.864Z,13.62
2022-08-11T02:53:56.312Z,13.63
2022-08-11T02:54:51.822Z,13.63
2022-08-11T02:55:57.015Z,13.59
2022-08-11T02:56:51.800Z,13.54
2022-08-11T02:57:50.809Z,13.62
2022-08-11T02:58:50.799Z,13.52
2022-08-11T02:59:50.769Z,13.51
2022-08-11T03:00:50.761Z,13.48
2022-08-11T03:01:50.809Z,13.45
2022-08-11T03:02:50.739Z,13.57
2022-08-11T03:03:50.727Z,13.54
2022-08-11T03:04:50.712Z,13.52
2022-08-11T03:05:50.702Z,13.41
2022-08-11T03:06:50.706Z,13.54
2022-08-11T03:07:50.676Z,13.52
2022-08-11T03:08:50.667Z,13.57
2022-08-11T03:09:50.656Z,13.52
2022-08-11T03:10:50.645Z,13.38
2022-08-11T03:11:50.656Z,13.44
2022-08-11T03:12:53.699Z,13.41
2022-08-11T03:13:50.611Z,13.44
2022-08-11T03:14:50.597Z,13.44
2022-08-11T03:15:50.588Z,13.48
2022-08-11T03:16:50.578Z,13.46
2022-08-11T03:17:50.589Z,13.49
2022-08-11T03:18:50.574Z,13.45
2022-08-11T03:19:50.547Z,13.42
2022-08-11T03:20:50.535Z,13.41
2022-08-11T03:22:01.636Z,13.42
2022-08-11T03:22:51.531Z,13.33
2022-08-11T03:23:50.523Z,13.45
2022-08-11T03:24:50.487Z,13.28
2022-08-11T03:25:50.482Z,13.30
2022-08-11T03:26:50.465Z,13.29
2022-08-11T03:27:50.479Z,13.30
2022-08-11T03:28:50.440Z,13.26
2022-08-11T03:29:50.434Z,13.39
2022-08-11T03:30:50.422Z,13.39
2022-08-11T03:31:50.412Z,13.26
2022-08-11T03:32:50.419Z,13.39
2022-08-11T03:33:50.390Z,13.33
2022-08-11T03:34:50.376Z,13.30
2022-08-11T03:35:50.368Z,13.29
2022-08-11T03:37:14.876Z,13.36
2022-08-11T03:37:51.365Z,13.28
2022-08-11T03:38:50.335Z,13.26
2022-08-11T03:39:51.141Z,13.28
2022-08-11T03:40:51.454Z,13.28
2022-08-11T03:42:03.888Z,13.29
2022-08-11T03:42:51.287Z,13.14
2022-08-11T03:43:58.572Z,13.19
2022-08-11T03:44:51.264Z,13.28
2022-08-11T03:45:50.278Z,13.17
2022-08-11T03:46:50.242Z,13.22
2022-08-11T03:47:55.135Z,13.11
2022-08-11T03:48:51.216Z,13.10
2022-08-11T03:49:50.214Z,13.04
2022-08-11T03:50:54.829Z,13.05
2022-08-11T03:51:52.160Z,13.01
2022-08-11T03:52:50.178Z,13.10
2022-08-11T03:53:50.183Z,13.01
2022-08-11T03:54:50.153Z,13.15
2022-08-11T03:55:50.170Z,13.00
2022-08-11T03:56:50.130Z,13.00
2022-08-11T03:57:50.119Z,13.12
2022-08-11T03:58:50.110Z,12.97
2022-08-11T03:59:50.102Z,13.00
2022-08-11T04:00:50.109Z,13.01
2022-08-11T04:01:50.131Z,13.03
2022-08-11T04:02:50.061Z,13.00
2022-08-11T04:03:50.055Z,13.01
2022-08-11T04:04:51.447Z,12.95
2022-08-11T04:05:50.054Z,13.00
2022-08-11T04:06:50.039Z,12.95
2022-08-11T04:07:50.008Z,13.00
2022-08-11T04:08:50.020Z,13.07
2022-08-11T04:09:49.988Z,12.96
2022-08-11T04:10:50.001Z,13.00
2022-08-11T04:11:49.965Z,12.90
2022-08-11T04:12:50.240Z,12.89
2022-08-11T04:13:49.945Z,12.96
2022-08-11T04:14:49.930Z,12.92
2022-08-11T04:15:49.916Z,12.90
2022-08-11T04:16:49.925Z,13.00
2022-08-11T04:17:49.898Z,12.97
2022-08-11T04:18:49.886Z,13.01
2022-08-11T04:19:49.881Z,12.93
2022-08-11T04:20:49.862Z,13.03
2022-08-11T04:21:49.870Z,13.01
2022-08-11T04:22:49.840Z,13.01
2022-08-11T04:24:36.333Z,12.96
2022-08-11T04:24:50.816Z,13.03
2022-08-11T04:25:57.444Z,13.01
2022-08-11T04:26:50.816Z,12.95
2022-08-11T04:27:49.787Z,13.04
2022-08-11T04:28:50.971Z,13.14
2022-08-11T04:30:04.107Z,12.96
2022-08-11T04:30:50.751Z,13.05
2022-08-11T04:31:51.555Z,13.08
2022-08-11T04:32:49.730Z,13.17
2022-08-11T04:33:49.718Z,13.11
2022-08-11T04:34:49.731Z,13.25
2022-08-11T04:35:51.326Z,13.08
2022-08-11T04:36:49.683Z,13.12
2022-08-11T04:37:53.347Z,13.14
2022-08-11T04:38:49.685Z,13.23
2022-08-11T04:39:49.740Z,13.19
2022-08-11T04:40:49.642Z,13.15
2022-08-11T04:41:49.630Z,13.19
2022-08-11T04:42:49.819Z,13.22
2022-08-11T04:44:02.668Z,13.19
2022-08-11T04:44:50.596Z,13.20
2022-08-11T04:45:49.587Z,13.23
2022-08-11T04:46:49.573Z,13.29
2022-08-11T04:48:04.492Z,13.25
2022-08-11T04:48:50.710Z,13.26
2022-08-11T04:49:49.546Z,13.28
2022-08-11T04:51:08.837Z,13.26
2022-08-11T04:51:50.519Z,13.28
2022-08-11T04:52:49.528Z,13.30
2022-08-11T04:53:52.443Z,13.36
2022-08-11T04:54:49.484Z,13.36
2022-08-11T04:55:49.474Z,13.38
2022-08-11T04:56:49.484Z,13.44
2022-08-11T04:57:49.455Z,13.45
2022-08-11T04:58:49.467Z,13.44
2022-08-11T04:59:49.438Z,13.42
2022-08-11T05:00:49.423Z,13.55
2022-08-11T05:01:49.476Z,13.57
2022-08-11T05:02:49.395Z,13.46
2022-08-11T05:03:49.385Z,13.59
2022-08-11T05:04:49.373Z,13.67
2022-08-11T05:05:56.741Z,13.62
2022-08-11T05:06:50.370Z,13.55
2022-08-11T05:07:49.341Z,13.67
2022-08-11T05:08:49.330Z,13.69
2022-08-11T05:09:49.338Z,13.67
2022-08-11T05:10:49.309Z,13.73
2022-08-11T05:11:49.296Z,13.73
2022-08-11T05:12:49.290Z,13.75
2022-08-11T05:13:49.295Z,13.77
2022-08-11T05:14:49.261Z,13.73
2022-08-11T05:15:51.533Z,13.88
2022-08-11T05:16:49.240Z,13.88
2022-08-11T05:17:49.247Z,13.87
2022-08-11T05:18:49.218Z,13.92
2022-08-11T05:19:49.206Z,13.99
2022-08-11T05:20:49.192Z,14.00
2022-08-11T05:21:49.181Z,14.04
2022-08-11T05:22:49.187Z,14.12
2022-08-11T05:23:49.160Z,14.09
2022-08-11T05:24:49.147Z,14.07
2022-08-11T05:26:45.211Z,14.07
2022-08-11T05:26:50.122Z,14.12
2022-08-11T05:27:49.119Z,14.18
2022-08-11T05:28:49.108Z,14.24
2022-08-11T05:29:49.094Z,14.25
2022-08-11T05:30:49.082Z,14.35
2022-08-11T05:31:49.097Z,14.27
2022-08-11T05:32:49.060Z,14.33
2022-08-11T05:33:49.048Z,14.43
2022-08-11T05:34:49.039Z,14.52
2022-08-11T05:36:00.380Z,14.60
2022-08-11T05:36:50.035Z,14.64
2022-08-11T05:37:49.006Z,14.69
2022-08-11T05:38:48.993Z,14.75
2022-08-11T05:39:49.008Z,14.86
2022-08-11T05:40:51.314Z,14.77
2022-08-11T05:41:48.959Z,14.89
2022-08-11T05:42:48.968Z,14.95
2022-08-11T05:44:20.125Z,14.98
2022-08-11T05:44:49.930Z,15.03
2022-08-11T05:46:02.711Z,15.06
2022-08-11T05:46:49.901Z,15.13
2022-08-11T05:47:48.911Z,15.23
2022-08-11T05:48:48.879Z,15.36
2022-08-11T05:49:48.894Z,15.38
2022-08-11T05:50:48.860Z,15.53
2022-08-11T05:51:52.492Z,15.57
2022-08-11T05:52:55.405Z,15.67
2022-08-11T05:53:49.824Z,15.76
2022-08-11T05:54:49.320Z,15.78
2022-08-11T05:55:54.601Z,15.75
2022-08-11T05:56:49.795Z,15.87
2022-08-11T05:57:51.643Z,15.97
2022-08-11T05:58:48.793Z,16.11
2022-08-11T05:59:48.763Z,16.23
2022-08-11T06:00:48.752Z,16.43
2022-08-11T06:01:48.799Z,16.93
2022-08-11T06:02:48.724Z,17.40
2022-08-11T06:03:57.591Z,17.71
2022-08-11T06:04:49.726Z,18.17
2022-08-11T06:05:48.692Z,18.27
2022-08-11T06:06:48.678Z,18.51
2022-08-11T06:07:50.023Z,18.75
2022-08-11T06:08:48.682Z,18.81
2022-08-11T06:09:48.650Z,19.06
2022-08-11T06:10:48.636Z,19.23
2022-08-11T06:11:48.646Z,19.26
2022-08-11T06:12:48.616Z,19.32
2022-08-11T06:13:48.627Z,19.33
2022-08-11T06:14:48.592Z,19.37
2022-08-11T06:15:48.580Z,19.55
2022-08-11T06:16:48.571Z,19.59
2022-08-11T06:17:48.558Z,19.76
2022-08-11T06:18:48.567Z,19.74
2022-08-11T06:19:48.535Z,19.59
2022-08-11T06:20:48.542Z,19.65
2022-08-11T06:21:48.828Z,19.59
2022-08-11T06:22:52.781Z,19.62
2022-08-11T06:23:48.494Z,19.59
2022-08-11T06:24:48.479Z,19.65
2022-08-11T06:25:48.478Z,19.73
2022-08-11T06:27:09.093Z,19.80
2022-08-11T06:27:49.446Z,19.74
2022-08-11T06:28:48.435Z,19.61
2022-08-11T06:29:55.355Z,19.63
2022-08-11T06:30:49.412Z,19.65
2022-08-11T06:31:48.424Z,19.69
2022-08-11T06:32:48.392Z,19.59
2022-08-11T06:33:48.381Z,19.61
2022-08-11T06:34:48.369Z,19.69
2022-08-11T06:35:48.371Z,19.76
2022-08-11T06:36:48.347Z,19.86
2022-08-11T06:37:48.355Z,19.92
2022-08-11T06:38:48.354Z,19.99
2022-08-11T06:39:48.428Z,19.96
2022-08-11T06:40:48.303Z,20.14
2022-08-11T06:41:48.288Z,19.99
2022-08-11T06:42:48.300Z,19.98
2022-08-11T06:43:55.570Z,19.94
2022-08-11T06:44:49.258Z,19.86
2022-08-11T06:45:48.267Z,20.13
2022-08-11T06:46:48.236Z,20.10
2022-08-11T06:47:48.224Z,20.28
2022-08-11T06:48:48.215Z,20.24
2022-08-11T06:49:48.203Z,20.29
2022-08-11T06:50:48.213Z,20.24
2022-08-11T06:51:48.181Z,20.33
2022-08-11T06:52:48.414Z,20.35
2022-08-11T06:54:03.603Z,20.54
2022-08-11T06:54:49.147Z,20.70
2022-08-11T06:55:56.175Z,20.58
2022-08-11T06:56:57.477Z,20.64
2022-08-11T06:57:49.184Z,20.73
2022-08-11T06:58:48.106Z,20.74
2022-08-11T06:59:48.092Z,20.72
2022-08-11T07:00:48.087Z,20.69
2022-08-11T07:01:49.567Z,20.77
2022-08-11T07:02:48.062Z,20.89
2022-08-11T07:03:48.065Z,20.80
2022-08-11T07:04:48.038Z,20.85
2022-08-11T07:05:48.047Z,20.85
2022-08-11T07:06:50.946Z,20.82
2022-08-11T07:07:48.030Z,20.69
2022-08-11T07:08:47.995Z,20.87
2022-08-11T07:09:47.982Z,21.10
2022-08-11T07:10:47.992Z,21.13
2022-08-11T07:11:47.958Z,21.25
2022-08-11T07:12:47.951Z,21.27
2022-08-11T07:13:48.235Z,21.25
2022-08-11T07:14:47.949Z,21.21
2022-08-11T07:16:11.263Z,21.25
2022-08-11T07:16:48.909Z,21.49
2022-08-11T07:17:47.892Z,21.54
2022-08-11T07:18:47.886Z,21.71
2022-08-11T07:19:47.911Z,21.91
2022-08-11T07:20:47.864Z,22.21
2022-08-11T07:22:03.032Z,22.35
2022-08-11T07:22:48.839Z,22.55
2022-08-11T07:23:47.849Z,22.88
2022-08-11T07:24:59.174Z,23.04
2022-08-11T07:25:48.805Z,22.92
2022-08-11T07:26:47.796Z,23.10
2022-08-11T07:27:47.782Z,22.94
2022-08-11T07:28:47.773Z,22.90
2022-08-11T07:29:47.761Z,22.91
2022-08-11T07:30:47.769Z,22.91
2022-08-11T07:31:47.740Z,22.92
2022-08-11T07:32:47.733Z,23.12
2022-08-11T07:34:08.270Z,23.12
2022-08-11T07:34:48.719Z,23.19
2022-08-11T07:35:47.715Z,23.20
2022-08-11T07:36:47.684Z,23.39
2022-08-11T07:37:47.681Z,23.69
2022-08-11T07:38:47.841Z,23.83
2022-08-11T07:39:47.732Z,23.80
2022-08-11T07:40:47.663Z,23.90
2022-08-11T07:41:47.631Z,23.94
2022-08-11T07:42:47.645Z,23.63
2022-08-11T07:43:47.610Z,23.93
2022-08-11T07:44:47.596Z,24.02
2022-08-11T07:45:47.607Z,23.79
2022-08-11T07:46:47.576Z,23.94
2022-08-11T07:47:47.564Z,24.13
2022-08-11T07:48:47.556Z,24.25
2022-08-11T07:49:47.562Z,24.39
2022-08-11T07:50:47.531Z,24.49
2022-08-11T07:51:47.521Z,24.77
2022-08-11T07:52:47.526Z,24.96
2022-08-11T07:54:16.198Z,25.18
2022-08-11T07:54:51.164Z,25.23
2022-08-11T07:55:49.586Z,25.27
2022-08-11T07:56:55.255Z,25.25
2022-08-11T07:58:13.903Z,25.00
2022-08-11T07:58:52.317Z,24.80
2022-08-11T08:00:03.702Z,24.78
2022-08-11T08:00:51.882Z,24.81
2022-08-11T08:01:47.514Z,24.93
2022-08-11T08:02:47.423Z,24.99
2022-08-11T08:03:54.032Z,25.28
2022-08-11T08:04:48.379Z,25.30
2022-08-11T08:05:47.389Z,25.54
2022-08-11T08:06:47.359Z,25.58
2022-08-11T08:07:47.344Z,25.76
2022-08-11T08:08:47.337Z,25.76
2022-08-11T08:09:47.334Z,25.79
2022-08-11T08:10:47.335Z,25.80
2022-08-11T08:11:47.324Z,25.72
2022-08-11T08:12:47.294Z,25.69
2022-08-11T08:13:47.302Z,25.87
2022-08-11T08:14:47.273Z,25.94
2022-08-11T08:15:47.282Z,26.23
2022-08-11T08:16:47.250Z,26.25
2022-08-11T08:18:09.932Z,25.83
2022-08-11T08:18:48.228Z,25.30
2022-08-11T08:19:47.219Z,25.45
2022-08-11T08:20:47.240Z,25.64
2022-08-11T08:21:47.200Z,25.79
2022-08-11T08:22:48.658Z,25.95
2022-08-11T08:23:47.174Z,26.37
2022-08-11T08:24:48.163Z,26.50
2022-08-11T08:25:47.154Z,26.44
2022-08-11T08:26:51.474Z,26.25
2022-08-11T08:27:47.157Z,25.98
2022-08-11T08:28:47.123Z,26.07
2022-08-11T08:29:47.109Z,26.43
2022-08-11T08:30:47.102Z,26.58
2022-08-11T08:31:47.108Z,26.84
2022-08-11T08:32:47.078Z,26.87
2022-08-11T08:33:47.072Z,26.87
2022-08-11T08:34:47.058Z,26.67
2022-08-11T08:35:54.490Z,26.77
2022-08-11T08:36:48.033Z,27.04
2022-08-11T08:37:47.870Z,27.34
2022-08-11T08:38:47.020Z,27.21
2022-08-11T08:39:47.058Z,27.34
2022-08-11T08:40:46.993Z,27.66
2022-08-11T08:41:47.003Z,27.72
2022-08-11T08:42:47.221Z,27.79
2022-08-11T08:43:48.973Z,27.90
2022-08-11T08:44:46.952Z,28.07
2022-08-11T08:45:46.940Z,28.02
2022-08-11T08:46:46.959Z,28.19
2022-08-11T08:47:49.885Z,28.25
2022-08-11T08:48:47.907Z,28.17
2022-08-11T08:49:46.896Z,28.30
2022-08-11T08:50:47.132Z,28.48
2022-08-11T08:51:58.611Z,28.56
2022-08-11T08:52:48.276Z,28.48
2022-08-11T08:53:53.275Z,28.74
2022-08-11T08:54:47.843Z,28.83
2022-08-11T08:55:46.831Z,28.81
2022-08-11T08:56:46.823Z,28.90
2022-08-11T08:57:46.843Z,28.98
2022-08-11T08:58:46.800Z,28.96
2022-08-11T08:59:48.776Z,28.86
2022-08-11T09:00:46.814Z,28.92
2022-08-11T09:01:46.842Z,28.89
2022-08-11T09:02:47.063Z,28.61
2022-08-11T09:04:04.849Z,28.44
2022-08-11T09:04:47.735Z,28.39
2022-08-11T09:05:46.731Z,28.55
2022-08-11T09:06:47.484Z,28.41
2022-08-11T09:07:46.726Z,28.49
2022-08-11T09:08:46.700Z,28.70
2022-08-11T09:09:47.703Z,28.81
2022-08-11T09:10:46.677Z,28.74
2022-08-11T09:11:46.662Z,29.09
2022-08-11T09:12:46.935Z,29.24
2022-08-11T09:13:46.646Z,29.49
2022-08-11T09:14:47.726Z,29.48
2022-08-11T09:15:46.641Z,29.65
2022-08-11T09:16:46.607Z,29.71
2022-08-11T09:17:46.601Z,29.76
2022-08-11T09:18:46.608Z,29.98
2022-08-11T09:19:49.478Z,30.08
2022-08-11T09:20:47.566Z,29.95
2022-08-11T09:21:49.235Z,30.15
2022-08-11T09:22:46.566Z,30.23
2022-08-11T09:24:47.604Z,30.38
2022-08-11T09:25:46.533Z,30.37
2022-08-11T09:26:46.504Z,30.51
2022-08-11T09:27:50.542Z,30.34
2022-08-11T09:28:46.504Z,30.35
2022-08-11T09:29:46.471Z,30.47
2022-08-11T09:30:46.460Z,30.35
2022-08-11T09:31:46.456Z,30.34
2022-08-11T09:32:46.436Z,30.31
2022-08-11T09:33:46.446Z,30.34
2022-08-11T09:34:46.454Z,30.46
2022-08-11T09:35:46.406Z,30.62
2022-08-11T09:36:46.423Z,30.95
2022-08-11T09:37:54.541Z,31.04
2022-08-11T09:38:49.616Z,31.21
2022-08-11T09:39:46.370Z,31.25
2022-08-11T09:40:46.356Z,31.28
2022-08-11T09:42:01.398Z,31.46
2022-08-11T09:42:47.334Z,31.54
2022-08-11T09:43:46.345Z,31.61
2022-08-11T09:44:46.404Z,31.41
2022-08-11T09:45:46.321Z,31.43
2022-08-11T09:46:46.292Z,31.25
2022-08-11T09:47:46.291Z,31.13
2022-08-11T09:48:46.276Z,31.16
2022-08-11T09:49:46.257Z,31.29
2022-08-11T09:50:46.274Z,31.25
2022-08-11T09:51:59.746Z,31.09
2022-08-11T09:53:03.876Z,30.94
2022-08-11T09:54:02.861Z,31.07
2022-08-11T09:54:47.988Z,31.23
2022-08-11T09:55:46.199Z,31.54
2022-08-11T09:56:46.213Z,31.81
2022-08-11T09:57:46.239Z,31.86
2022-08-11T09:58:46.171Z,31.39
2022-08-11T09:59:46.156Z,31.26
2022-08-11T10:00:46.255Z,31.12
2022-08-11T10:01:47.342Z,31.19
2022-08-11T10:02:46.131Z,31.17
2022-08-11T10:03:46.116Z,31.43
2022-08-11T10:04:46.110Z,31.76
2022-08-11T10:05:46.120Z,31.76
2022-08-11T10:06:46.088Z,31.78
2022-08-11T10:07:46.095Z,31.56
2022-08-11T10:08:46.067Z,31.36
2022-08-11T10:09:46.054Z,31.28
2022-08-11T10:10:46.066Z,31.26
2022-08-11T10:11:55.515Z,31.19
2022-08-11T10:12:47.020Z,31.39
2022-08-11T10:14:33.344Z,31.57
2022-08-11T10:14:47.097Z,31.80
2022-08-11T10:16:00.089Z,31.68
2022-08-11T10:16:46.979Z,31.66
2022-08-11T10:17:45.975Z,31.58
2022-08-11T10:18:45.961Z,31.91
2022-08-11T10:20:03.926Z,32.00
2022-08-11T10:20:46.960Z,31.73
2022-08-11T10:21:45.932Z,31.56
2022-08-11T10:22:45.918Z,31.51
2022-08-11T10:24:00.474Z,31.28
2022-08-11T10:24:46.898Z,31.53
2022-08-11T10:25:45.890Z,31.53
2022-08-11T10:26:45.879Z,31.53
2022-08-11T10:28:28.530Z,31.58
2022-08-11T10:29:11.607Z,31.61
2022-08-11T10:29:49.656Z,31.56
2022-08-11T10:30:45.839Z,31.16
2022-08-11T10:31:56.918Z,31.25
2022-08-11T10:32:57.423Z,31.38
2022-08-11T10:33:59.497Z,31.50
2022-08-11T10:34:49.538Z,31.85
2022-08-11T10:35:46.783Z,32.07
2022-08-11T10:36:45.779Z,32.14
2022-08-11T10:38:08.084Z,32.30
2022-08-11T10:38:46.759Z,32.10
2022-08-11T10:39:45.881Z,32.43
2022-08-11T10:40:45.748Z,32.60
2022-08-11T10:42:06.737Z,32.63
2022-08-11T10:42:57.867Z,32.81
2022-08-11T10:44:01.779Z,32.87
2022-08-11T10:44:46.710Z,32.93
2022-08-11T10:45:45.683Z,32.85
2022-08-11T10:46:45.669Z,32.79
2022-08-11T10:47:49.823Z,32.87
2022-08-11T10:48:45.649Z,32.93
2022-08-11T10:49:45.660Z,32.82
2022-08-11T10:50:45.630Z,33.04
2022-08-11T10:51:51.164Z,33.18
2022-08-11T10:52:46.604Z,33.09
2022-08-11T10:53:45.597Z,32.87
2022-08-11T10:54:45.609Z,32.85
2022-08-11T10:55:45.642Z,32.44
2022-08-11T10:56:45.571Z,32.33
2022-08-11T10:58:04.784Z,32.32
2022-08-11T10:58:46.570Z,32.35
2022-08-11T10:59:45.558Z,32.28
2022-08-11T11:00:45.637Z,32.29
2022-08-11T11:01:45.707Z,32.32
2022-08-11T11:02:45.507Z,32.14
2022-08-11T11:03:46.490Z,32.13
2022-08-11T11:04:48.884Z,31.96
2022-08-11T11:06:27.361Z,32.08
2022-08-11T11:06:46.460Z,32.18
2022-08-11T11:07:45.478Z,32.28
2022-08-11T11:08:45.519Z,32.33
2022-08-11T11:09:45.434Z,32.23
2022-08-11T11:10:45.441Z,32.10
2022-08-11T11:11:45.411Z,32.13
2022-08-11T11:12:45.398Z,32.08
2022-08-11T11:13:54.927Z,31.51
2022-08-11T11:14:49.895Z,31.26
2022-08-11T11:15:45.394Z,31.02
2022-08-11T11:16:45.359Z,31.10
2022-08-11T11:17:45.385Z,31.16
2022-08-11T11:18:45.346Z,31.38
2022-08-11T11:19:46.330Z,31.50
2022-08-11T11:20:47.697Z,31.66
2022-08-11T11:21:45.307Z,31.47
2022-08-11T11:22:45.319Z,31.58
2022-08-11T11:23:45.287Z,31.80
2022-08-11T11:24:45.275Z,32.14
2022-08-11T11:25:45.266Z,32.28
2022-08-11T11:26:45.256Z,32.22
2022-08-11T11:27:46.351Z,32.32
2022-08-11T11:28:45.234Z,32.45
2022-08-11T11:29:45.226Z,32.65
2022-08-11T11:30:45.234Z,32.75
2022-08-11T11:31:45.207Z,32.65
2022-08-11T11:32:49.406Z,32.51
2022-08-11T11:33:57.420Z,32.51
2022-08-11T11:34:53.131Z,32.52
2022-08-11T11:35:46.162Z,32.52
2022-08-11T11:36:45.627Z,32.66
2022-08-11T11:37:58.514Z,32.62
2022-08-11T11:38:46.158Z,32.57
2022-08-11T11:39:45.235Z,32.63
2022-08-11T11:40:45.137Z,32.69
2022-08-11T11:41:45.097Z,32.74
2022-08-11T11:42:45.089Z,32.50
2022-08-11T11:43:45.099Z,32.33
2022-08-11T11:44:45.071Z,32.32
2022-08-11T11:45:45.059Z,32.19
2022-08-11T11:46:45.047Z,32.00
2022-08-11T11:47:45.043Z,32.11
2022-08-11T11:48:45.045Z,32.37
2022-08-11T11:49:45.017Z,32.50
2022-08-11T11:50:45.029Z,32.60
2022-08-11T11:51:45.556Z,32.26
2022-08-11T11:52:44.981Z,32.08
2022-08-11T11:53:44.976Z,31.99
2022-08-11T11:54:44.961Z,31.78
2022-08-11T11:55:44.955Z,31.44
2022-08-11T11:56:44.944Z,31.39
2022-08-11T11:57:58.612Z,31.50
2022-08-11T11:58:45.929Z,31.48
2022-08-11T11:59:44.913Z,31.41
2022-08-11T12:00:44.903Z,31.12
2022-08-11T12:01:50.422Z,30.98
2022-08-11T12:02:45.907Z,31.06
2022-08-11T12:03:44.954Z,31.12
2022-08-11T12:04:44.861Z,31.29
2022-08-11T12:05:44.851Z,31.31
2022-08-11T12:06:44.841Z,31.36
2022-08-11T12:07:44.849Z,31.21
2022-08-11T12:08:44.842Z,31.25
2022-08-11T12:09:44.810Z,31.32
2022-08-11T12:10:44.809Z,31.29
2022-08-11T12:11:44.790Z,31.44
2022-08-11T12:12:44.775Z,31.58
2022-08-11T12:13:44.809Z,31.78
2022-08-11T12:14:44.758Z,31.96
2022-08-11T12:16:31.742Z,31.69
2022-08-11T12:16:45.768Z,31.44
2022-08-11T12:17:44.754Z,31.34
2022-08-11T12:18:44.716Z,31.46
2022-08-11T12:19:46.083Z,31.38
2022-08-11T12:20:44.695Z,31.38
2022-08-11T12:21:44.686Z,31.38
2022-08-11T12:22:45.703Z,31.44
2022-08-11T12:23:44.665Z,31.43
2022-08-11T12:24:44.651Z,31.54
2022-08-11T12:25:44.647Z,31.39
2022-08-11T12:26:44.639Z,31.41
2022-08-11T12:27:45.623Z,31.32
2022-08-11T12:28:44.631Z,31.28
2022-08-11T12:29:44.604Z,31.13
2022-08-11T12:30:44.592Z,31.04
2022-08-11T12:31:44.583Z,31.09
2022-08-11T12:32:44.572Z,31.09
2022-08-11T12:33:44.609Z,31.02
2022-08-11T12:34:44.572Z,31.07
2022-08-11T12:36:01.177Z,31.01
2022-08-11T12:36:45.547Z,30.95
2022-08-11T12:37:44.539Z,30.98
2022-08-11T12:38:44.516Z,31.07
2022-08-11T12:40:16.700Z,30.97
2022-08-11T12:41:15.134Z,31.06
2022-08-11T12:41:45.543Z,31.12
2022-08-11T12:42:44.491Z,30.94
2022-08-11T12:43:45.453Z,30.95
2022-08-11T12:44:45.443Z,31.06
2022-08-11T12:45:44.476Z,31.04
2022-08-11T12:46:44.431Z,31.09
2022-08-11T12:47:44.419Z,31.04
2022-08-11T12:49:00.001Z,31.07
2022-08-11T12:49:45.780Z,31.20
2022-08-11T12:50:44.403Z,31.14
2022-08-11T12:52:11.768Z,31.14
2022-08-11T12:52:45.359Z,31.13
2022-08-11T12:53:44.350Z,31.06